Isola Bianca — ICLD — position and weather

sailwx.info

Track history (hours):
 
Tides and Currents Weather Stations Pressure Air Temp Water Temp Dewpoint Dewpoint Depression Visibility Wind Speed Wind Dir Waves Ship Positions

Isola Bianca

Last reported at 2015-Apr-06 22:27 UTC. Time now 2015-May-22 17:40 UTC.
Position N 35°60' W 005°28'.
Warning: this ship's position is 45 days out of date.

Length 183 m; draft 10.3 m.

Type: Ship. MMSI: 247245200.

Date/timePositionNaut miles runAvg speedWind from/ knotsBaromVisibWave heightAir tempDewpointWater temp
2015-Apr-06 22:27N 35°60' W 005°28'8 9.4
2015-Apr-06 21:33N 36°07' W 005°22'1 0.9
2015-Apr-06 20:06N 36°08' W 005°22'0 0.1
2015-Apr-06 19:09N 36°08' W 005°22'0 0.1
2015-Apr-06 17:09N 36°08' W 005°22'0 0.0
2015-Apr-06 15:27N 36°08' W 005°22'0 0.1
2015-Apr-06 14:24N 36°08' W 005°22'0 0.2
2015-Apr-06 13:33N 36°08' W 005°22'0 0.1
2015-Apr-06 12:30N 36°08' W 005°22'0 0.1
2015-Apr-06 11:30N 36°08' W 005°22'0 0.0
2015-Apr-06 10:33N 36°08' W 005°22'0 0.0
2015-Apr-06 09:06N 36°08' W 005°22'1 0.9
2015-Apr-06 08:33N 36°07' W 005°22'3 3.0
2015-Apr-06 07:33N 36°05' W 005°20'5 5.1
2015-Apr-06 06:33N 36°08' W 005°14'1 0.6
2015-Apr-06 04:19N 36°07' W 005°12'0 0.4
2015-Apr-06 03:23N 36°07' W 005°13'17911.2
2015-Apr-05 11:25N 36°50' W 001°37'1212.5
2015-Apr-05 10:30N 36°58' W 001°26'1712.4
2015-Apr-05 09:06N 37°09' W 001°10'712.2
2015-Apr-05 08:33N 37°14' W 001°03'1312.7
2015-Apr-05 07:33N 37°22' W 000°51'1312.6
2015-Apr-05 06:33N 37°30' W 000°39'1212.2
2015-Apr-05 05:33N 37°39' W 000°29'1212.2
2015-Apr-05 04:33N 37°50' W 000°21'1312.6
2015-Apr-05 03:33N 38°00' W 000°12'1212.4
2015-Apr-05 02:33N 38°11' W 000°03'1212.1
2015-Apr-05 01:33N 38°21' E 000°05'2711.9
2015-Apr-04 23:16N 38°43' E 000°24'2111.9
2015-Apr-04 21:32N 38°59' E 000°41'1211.9
2015-Apr-04 20:33N 39°09' E 000°50'4711.9
2015-Apr-04 16:33N 39°46' E 001°28'1212.2
2015-Apr-04 15:33N 39°56' E 001°38'1212.2
2015-Apr-04 14:33N 40°05' E 001°48'1211.9
2015-Apr-04 13:33N 40°14' E 001°58'1211.7
2015-Apr-04 12:33N 40°24' E 002°07'1111.2
2015-Apr-04 11:33N 40°32' E 002°16'1312.6
2015-Apr-04 10:33N 40°42' E 002°27'1312.6
2015-Apr-04 09:33N 40°52' E 002°37'1211.7
2015-Apr-04 08:33N 41°01' E 002°46'2712.1
2015-Apr-04 06:17N 41°23' E 003°09'8313.7
2015-Apr-04 00:13N 42°29' E 004°17'2713.8
2015-Apr-03 22:15N 42°51' E 004°39'1010.7
2015-Apr-03 21:21N 42°58' E 004°47'1011.8
2015-Apr-03 20:29N 43°07' E 004°55'1111.4
2015-Apr-03 19:29N 43°18' E 004°59'6 6.8
2015-Apr-03 18:33N 43°24' E 004°60'0 0.0
2015-Apr-03 17:31N 43°24' E 004°60'0 0.0
2015-Apr-03 16:28N 43°24' E 004°60'0 0.0
2015-Apr-03 15:28N 43°24' E 004°60'0 0.0
2015-Apr-03 14:16N 43°24' E 004°60'0 0.0
2015-Apr-03 13:31N 43°24' E 004°60'0 0.0
2015-Apr-03 12:31N 43°24' E 004°60'0 0.0
2015-Apr-03 11:31N 43°24' E 004°60'0 0.0
2015-Apr-03 10:31N 43°24' E 004°60'0 0.0
2015-Apr-03 09:31N 43°24' E 004°60'0 0.0
2015-Apr-03 08:31N 43°24' E 004°60'0 0.0
2015-Apr-03 07:31N 43°24' E 004°60'0 0.0
2015-Apr-03 06:31N 43°24' E 004°60'0 0.0
2015-Apr-03 05:25N 43°24' E 004°60'0 0.0
2015-Apr-03 04:31N 43°24' E 004°60'0 0.0
2015-Apr-03 03:28N 43°24' E 004°60'0 0.0
2015-Apr-03 02:28N 43°24' E 004°60'0 0.0
2015-Apr-03 01:31N 43°24' E 004°60'0 0.0
2015-Apr-03 00:28N 43°24' E 004°60'0 0.0
2015-Apr-02 23:28N 43°24' E 004°60'0 0.0
2015-Apr-02 22:31N 43°24' E 004°60'0 0.0
2015-Apr-02 21:31N 43°24' E 004°60'0 0.0
2015-Apr-02 20:28N 43°24' E 004°60'0 0.0
2015-Apr-02 19:31N 43°24' E 004°60'0 0.0
2015-Apr-02 18:31N 43°24' E 004°60'0 0.0
2015-Apr-02 17:28N 43°24' E 004°60'0 0.0
2015-Apr-02 16:28N 43°24' E 004°60'0 0.0
2015-Apr-02 15:28N 43°24' E 004°60'0 0.0
2015-Apr-02 14:28N 43°24' E 004°60'0 0.0
2015-Apr-02 13:28N 43°24' E 004°60'0 0.0
2015-Apr-02 12:28N 43°24' E 004°60'0 0.0
2015-Apr-02 11:28N 43°24' E 004°60'0 0.0
2015-Apr-02 10:28N 43°24' E 004°60'0 0.0
2015-Apr-02 09:31N 43°24' E 004°60'0 0.0
2015-Apr-02 08:31N 43°24' E 004°60'0 0.0
2015-Apr-02 07:28N 43°24' E 004°60'0 0.0
2015-Apr-02 06:28N 43°24' E 004°60'0 0.0
2015-Apr-02 05:31N 43°24' E 004°60'0 0.0
2015-Apr-02 04:31N 43°24' E 004°60'0 0.0
2015-Apr-02 03:31N 43°24' E 004°60'0 0.0
2015-Apr-02 02:31N 43°24' E 004°60'0 0.0
2015-Apr-02 01:31N 43°24' E 004°60'0 0.0
2015-Apr-02 00:28N 43°24' E 004°60'0 0.0
2015-Apr-01 23:31N 43°24' E 004°60'0 0.0
2015-Apr-01 22:31N 43°24' E 004°60'0 0.0
2015-Apr-01 21:25N 43°24' E 004°60'0 0.0
2015-Apr-01 20:31N 43°24' E 004°60'0 0.0
2015-Apr-01 19:31N 43°24' E 004°60'0 0.0
2015-Apr-01 18:31N 43°24' E 004°60'0 0.0
2015-Apr-01 17:22N 43°24' E 004°60'0 0.0
2015-Apr-01 16:31N 43°24' E 004°60'0 0.0
2015-Apr-01 15:31N 43°24' E 004°60'0 0.0
2015-Apr-01 14:28N 43°24' E 004°60'0 0.0
2015-Apr-01 13:28N 43°24' E 004°60'0 0.0
2015-Apr-01 12:28N 43°24' E 004°60'0 0.0
2015-Apr-01 11:28N 43°24' E 004°60'0 0.0
2015-Apr-01 10:31N 43°24' E 004°60'0 0.0
2015-Apr-01 09:22N 43°24' E 004°60'0 0.0
2015-Apr-01 08:28N 43°24' E 004°60'0 0.0
2015-Apr-01 07:28N 43°24' E 004°60'0 0.0
2015-Apr-01 06:31N 43°24' E 004°60'0 0.0
2015-Apr-01 05:31N 43°24' E 004°60'0 0.0
2015-Apr-01 04:25N 43°24' E 004°60'0 0.0
2015-Apr-01 03:31N 43°24' E 004°60'0 0.0
2015-Apr-01 02:31N 43°24' E 004°60'0 0.0
2015-Apr-01 01:31N 43°24' E 004°60'0 0.0
2015-Apr-01 00:28N 43°24' E 004°60'0 0.0
2015-Mar-31 23:31N 43°24' E 004°60'0 0.0
2015-Mar-31 22:31N 43°24' E 004°60'0 0.0
2015-Mar-31 21:31N 43°24' E 004°60'0 0.0
2015-Mar-31 20:31N 43°24' E 004°60'0 0.0
2015-Mar-31 19:28N 43°24' E 004°60'0 0.0
2015-Mar-31 18:28N 43°24' E 004°60'0 0.0
2015-Mar-31 17:25N 43°24' E 004°60'0 0.0
2015-Mar-31 16:31N 43°24' E 004°60'0 0.0
2015-Mar-31 15:28N 43°24' E 004°60'0 0.0
2015-Mar-31 14:31N 43°24' E 004°60'0 0.0
2015-Mar-31 13:31N 43°24' E 004°60'0 0.0
2015-Mar-31 12:31N 43°24' E 004°60'0 0.0
2015-Mar-31 11:31N 43°24' E 004°60'0 0.0
2015-Mar-31 10:31N 43°24' E 004°60'0 0.0
2015-Mar-31 09:31N 43°24' E 004°60'0 0.0
2015-Mar-31 08:31N 43°24' E 004°60'0 0.0
2015-Mar-31 07:31N 43°24' E 004°60'0 0.0
2015-Mar-31 06:31N 43°24' E 004°60'0 0.0
2015-Mar-31 05:31N 43°24' E 004°60'0 0.0
2015-Mar-31 04:28N 43°24' E 004°60'0 0.0
2015-Mar-31 03:31N 43°24' E 004°60'0 0.0
2015-Mar-31 02:31N 43°24' E 004°60'0 0.0
2015-Mar-31 01:31N 43°24' E 004°60'0 0.0
2015-Mar-31 00:28N 43°24' E 004°60'0 0.0
2015-Mar-30 23:28N 43°24' E 004°60'0 0.0
2015-Mar-30 22:31N 43°24' E 004°60'0 0.0
2015-Mar-30 21:31N 43°24' E 004°60'0 0.0
2015-Mar-30 20:31N 43°24' E 004°60'0 0.0
2015-Mar-30 19:28N 43°24' E 004°60'0 0.0
2015-Mar-30 18:31N 43°24' E 004°60'0 0.0
2015-Mar-30 17:28N 43°24' E 004°60'0 0.0
2015-Mar-30 16:28N 43°24' E 004°60'0 0.0
2015-Mar-30 15:31N 43°24' E 004°60'0 0.0
2015-Mar-30 14:28N 43°24' E 004°60'0 0.0
2015-Mar-30 13:31N 43°24' E 004°60'0 0.0
2015-Mar-30 12:28N 43°24' E 004°60'0 0.0
2015-Mar-30 11:31N 43°24' E 004°60'0 0.0
2015-Mar-30 10:28N 43°24' E 004°60'0 0.0
2015-Mar-30 09:31N 43°24' E 004°60'0 0.0
2015-Mar-30 08:31N 43°24' E 004°60'0 0.0
2015-Mar-30 07:28N 43°24' E 004°60'0 0.0
2015-Mar-30 06:33N 43°24' E 004°60'0 0.2
2015-Mar-30 05:34N 43°24' E 004°60'1 1.1
2015-Mar-30 04:30N 43°23' E 004°58'0 0.0
2015-Mar-30 03:30N 43°23' E 004°58'0 0.0
2015-Mar-30 02:30N 43°23' E 004°58'0 0.1
2015-Mar-30 01:30N 43°23' E 004°58'0 0.0
2015-Mar-30 00:30N 43°23' E 004°58'0 0.0
2015-Mar-29 23:33N 43°23' E 004°58'0 0.0
2015-Mar-29 22:33N 43°23' E 004°58'0 0.0
2015-Mar-29 21:30N 43°23' E 004°58'0 0.1
2015-Mar-29 20:30N 43°23' E 004°58'0 0.0
2015-Mar-29 19:33N 43°23' E 004°58'0 0.0
2015-Mar-29 18:24N 43°23' E 004°58'0 0.0
2015-Mar-29 17:30N 43°23' E 004°58'0 0.0
2015-Mar-29 16:24N 43°23' E 004°58'0 0.1
2015-Mar-29 15:33N 43°23' E 004°58'0 0.0
2015-Mar-29 14:30N 43°23' E 004°58'0 0.0
2015-Mar-29 13:33N 43°23' E 004°58'0 0.0
2015-Mar-29 12:33N 43°23' E 004°58'0 0.0
2015-Mar-29 11:33N 43°23' E 004°58'0 0.0
2015-Mar-29 10:33N 43°23' E 004°58'0 0.0
2015-Mar-29 09:33N 43°23' E 004°58'0 0.0
2015-Mar-29 08:30N 43°23' E 004°58'0 0.0
2015-Mar-29 07:33N 43°23' E 004°58'0 0.0
2015-Mar-29 06:30N 43°23' E 004°58'0 0.0
2015-Mar-29 05:33N 43°23' E 004°58'0 0.0
2015-Mar-29 04:33N 43°23' E 004°58'0 0.0
2015-Mar-29 03:33N 43°23' E 004°58'0 0.0
2015-Mar-29 02:33N 43°23' E 004°58'0 0.0
2015-Mar-29 01:24N 43°23' E 004°58'0 0.0
2015-Mar-29 00:30N 43°23' E 004°58'0 0.0
2015-Mar-28 23:33N 43°23' E 004°58'0 0.0
2015-Mar-28 22:30N 43°23' E 004°58'0 0.0
2015-Mar-28 21:33N 43°23' E 004°58'0 0.0
2015-Mar-28 20:30N 43°23' E 004°58'0 0.0
2015-Mar-28 19:30N 43°23' E 004°58'0 0.1
2015-Mar-28 18:24N 43°23' E 004°58'0 0.0
2015-Mar-28 17:33N 43°23' E 004°58'0 0.0
2015-Mar-28 16:30N 43°23' E 004°58'0 0.0
2015-Mar-28 15:27N 43°23' E 004°58'0 0.0
2015-Mar-28 14:30N 43°23' E 004°58'0 0.0
2015-Mar-28 13:33N 43°23' E 004°58'0 0.0
2015-Mar-28 12:18N 43°23' E 004°58'0 0.0
2015-Mar-28 11:33N 43°23' E 004°58'0 0.0
2015-Mar-28 10:33N 43°23' E 004°58'0 0.0
2015-Mar-28 09:33N 43°23' E 004°58'0 0.0
2015-Mar-28 08:33N 43°23' E 004°58'0 0.0
2015-Mar-28 07:33N 43°23' E 004°58'0 0.0
2015-Mar-28 06:30N 43°23' E 004°58'0 0.0
2015-Mar-28 05:33N 43°23' E 004°58'0 0.0
2015-Mar-28 04:33N 43°23' E 004°58'0 0.0
2015-Mar-28 03:33N 43°23' E 004°58'0 0.0
2015-Mar-28 02:33N 43°23' E 004°58'0 0.0
2015-Mar-28 01:33N 43°23' E 004°58'0 0.0
2015-Mar-28 00:33N 43°23' E 004°58'0 0.0
2015-Mar-27 23:30N 43°23' E 004°58'0 0.0
2015-Mar-27 22:30N 43°23' E 004°58'  
Track history (hours):
 
Tides and Currents Weather Stations Pressure Air Temp Water Temp Dewpoint Dewpoint Depression Visibility Wind Speed Wind Dir Waves Ship Positions

Isola Bianca

Last reported at 2015-Apr-06 22:27 UTC. Time now 2015-May-22 17:40 UTC.
Position N 35°60' W 005°28'.
Warning: this ship's position is 45 days out of date.

Length 183 m; draft 10.3 m.

Type: Ship. MMSI: 247245200.

Date/timePositionNaut miles runAvg speedWind from/ knotsBaromVisibWave heightAir tempDewpointWater temp
2015-Apr-06 22:27N 35°60' W 005°28'8 9.4
2015-Apr-06 21:33N 36°07' W 005°22'1 0.9
2015-Apr-06 20:06N 36°08' W 005°22'0 0.1
2015-Apr-06 19:09N 36°08' W 005°22'0 0.1
2015-Apr-06 17:09N 36°08' W 005°22'0 0.0
2015-Apr-06 15:27N 36°08' W 005°22'0 0.1
2015-Apr-06 14:24N 36°08' W 005°22'0 0.2
2015-Apr-06 13:33N 36°08' W 005°22'0 0.1
2015-Apr-06 12:30N 36°08' W 005°22'0 0.1
2015-Apr-06 11:30N 36°08' W 005°22'0 0.0
2015-Apr-06 10:33N 36°08' W 005°22'0 0.0
2015-Apr-06 09:06N 36°08' W 005°22'1 0.9
2015-Apr-06 08:33N 36°07' W 005°22'3 3.0
2015-Apr-06 07:33N 36°05' W 005°20'5 5.1
2015-Apr-06 06:33N 36°08' W 005°14'1 0.6
2015-Apr-06 04:19N 36°07' W 005°12'0 0.4
2015-Apr-06 03:23N 36°07' W 005°13'17911.2
2015-Apr-05 11:25N 36°50' W 001°37'1212.5
2015-Apr-05 10:30N 36°58' W 001°26'1712.4
2015-Apr-05 09:06N 37°09' W 001°10'712.2
2015-Apr-05 08:33N 37°14' W 001°03'1312.7
2015-Apr-05 07:33N 37°22' W 000°51'1312.6
2015-Apr-05 06:33N 37°30' W 000°39'1212.2
2015-Apr-05 05:33N 37°39' W 000°29'1212.2
2015-Apr-05 04:33N 37°50' W 000°21'1312.6
2015-Apr-05 03:33N 38°00' W 000°12'1212.4
2015-Apr-05 02:33N 38°11' W 000°03'1212.1
2015-Apr-05 01:33N 38°21' E 000°05'2711.9
2015-Apr-04 23:16N 38°43' E 000°24'2111.9
2015-Apr-04 21:32N 38°59' E 000°41'1211.9
2015-Apr-04 20:33N 39°09' E 000°50'4711.9
2015-Apr-04 16:33N 39°46' E 001°28'1212.2
2015-Apr-04 15:33N 39°56' E 001°38'1212.2
2015-Apr-04 14:33N 40°05' E 001°48'1211.9
2015-Apr-04 13:33N 40°14' E 001°58'1211.7
2015-Apr-04 12:33N 40°24' E 002°07'1111.2
2015-Apr-04 11:33N 40°32' E 002°16'1312.6
2015-Apr-04 10:33N 40°42' E 002°27'1312.6
2015-Apr-04 09:33N 40°52' E 002°37'1211.7
2015-Apr-04 08:33N 41°01' E 002°46'2712.1
2015-Apr-04 06:17N 41°23' E 003°09'8313.7
2015-Apr-04 00:13N 42°29' E 004°17'2713.8
2015-Apr-03 22:15N 42°51' E 004°39'1010.7
2015-Apr-03 21:21N 42°58' E 004°47'1011.8
2015-Apr-03 20:29N 43°07' E 004°55'1111.4
2015-Apr-03 19:29N 43°18' E 004°59'6 6.8
2015-Apr-03 18:33N 43°24' E 004°60'0 0.0
2015-Apr-03 17:31N 43°24' E 004°60'0 0.0
2015-Apr-03 16:28N 43°24' E 004°60'0 0.0
2015-Apr-03 15:28N 43°24' E 004°60'0 0.0
2015-Apr-03 14:16N 43°24' E 004°60'0 0.0
2015-Apr-03 13:31N 43°24' E 004°60'0 0.0
2015-Apr-03 12:31N 43°24' E 004°60'0 0.0
2015-Apr-03 11:31N 43°24' E 004°60'0 0.0
2015-Apr-03 10:31N 43°24' E 004°60'0 0.0
2015-Apr-03 09:31N 43°24' E 004°60'0 0.0
2015-Apr-03 08:31N 43°24' E 004°60'0 0.0
2015-Apr-03 07:31N 43°24' E 004°60'0 0.0
2015-Apr-03 06:31N 43°24' E 004°60'0 0.0
2015-Apr-03 05:25N 43°24' E 004°60'0 0.0
2015-Apr-03 04:31N 43°24' E 004°60'0 0.0
2015-Apr-03 03:28N 43°24' E 004°60'0 0.0
2015-Apr-03 02:28N 43°24' E 004°60'0 0.0
2015-Apr-03 01:31N 43°24' E 004°60'0 0.0
2015-Apr-03 00:28N 43°24' E 004°60'0 0.0
2015-Apr-02 23:28N 43°24' E 004°60'0 0.0
2015-Apr-02 22:31N 43°24' E 004°60'0 0.0
2015-Apr-02 21:31N 43°24' E 004°60'0 0.0
2015-Apr-02 20:28N 43°24' E 004°60'0 0.0
2015-Apr-02 19:31N 43°24' E 004°60'0 0.0
2015-Apr-02 18:31N 43°24' E 004°60'0 0.0
2015-Apr-02 17:28N 43°24' E 004°60'0 0.0
2015-Apr-02 16:28N 43°24' E 004°60'0 0.0
2015-Apr-02 15:28N 43°24' E 004°60'0 0.0
2015-Apr-02 14:28N 43°24' E 004°60'0 0.0
2015-Apr-02 13:28N 43°24' E 004°60'0 0.0
2015-Apr-02 12:28N 43°24' E 004°60'0 0.0
2015-Apr-02 11:28N 43°24' E 004°60'0 0.0
2015-Apr-02 10:28N 43°24' E 004°60'0 0.0
2015-Apr-02 09:31N 43°24' E 004°60'0 0.0
2015-Apr-02 08:31N 43°24' E 004°60'0 0.0
2015-Apr-02 07:28N 43°24' E 004°60'0 0.0
2015-Apr-02 06:28N 43°24' E 004°60'0 0.0
2015-Apr-02 05:31N 43°24' E 004°60'0 0.0
2015-Apr-02 04:31N 43°24' E 004°60'0 0.0
2015-Apr-02 03:31N 43°24' E 004°60'0 0.0
2015-Apr-02 02:31N 43°24' E 004°60'0 0.0
2015-Apr-02 01:31N 43°24' E 004°60'0 0.0
2015-Apr-02 00:28N 43°24' E 004°60'0 0.0
2015-Apr-01 23:31N 43°24' E 004°60'0 0.0
2015-Apr-01 22:31N 43°24' E 004°60'0 0.0
2015-Apr-01 21:25N 43°24' E 004°60'0 0.0
2015-Apr-01 20:31N 43°24' E 004°60'0 0.0
2015-Apr-01 19:31N 43°24' E 004°60'0 0.0
2015-Apr-01 18:31N 43°24' E 004°60'0 0.0
2015-Apr-01 17:22N 43°24' E 004°60'0 0.0
2015-Apr-01 16:31N 43°24' E 004°60'0 0.0
2015-Apr-01 15:31N 43°24' E 004°60'0 0.0
2015-Apr-01 14:28N 43°24' E 004°60'0 0.0
2015-Apr-01 13:28N 43°24' E 004°60'0 0.0
2015-Apr-01 12:28N 43°24' E 004°60'0 0.0
2015-Apr-01 11:28N 43°24' E 004°60'0 0.0
2015-Apr-01 10:31N 43°24' E 004°60'0 0.0
2015-Apr-01 09:22N 43°24' E 004°60'0 0.0
2015-Apr-01 08:28N 43°24' E 004°60'0 0.0
2015-Apr-01 07:28N 43°24' E 004°60'0 0.0
2015-Apr-01 06:31N 43°24' E 004°60'0 0.0
2015-Apr-01 05:31N 43°24' E 004°60'0 0.0
2015-Apr-01 04:25N 43°24' E 004°60'0 0.0
2015-Apr-01 03:31N 43°24' E 004°60'0 0.0
2015-Apr-01 02:31N 43°24' E 004°60'0 0.0
2015-Apr-01 01:31N 43°24' E 004°60'0 0.0
2015-Apr-01 00:28N 43°24' E 004°60'0 0.0
2015-Mar-31 23:31N 43°24' E 004°60'0 0.0
2015-Mar-31 22:31N 43°24' E 004°60'0 0.0
2015-Mar-31 21:31N 43°24' E 004°60'0 0.0
2015-Mar-31 20:31N 43°24' E 004°60'0 0.0
2015-Mar-31 19:28N 43°24' E 004°60'0 0.0
2015-Mar-31 18:28N 43°24' E 004°60'0 0.0
2015-Mar-31 17:25N 43°24' E 004°60'0 0.0
2015-Mar-31 16:31N 43°24' E 004°60'0 0.0
2015-Mar-31 15:28N 43°24' E 004°60'0 0.0
2015-Mar-31 14:31N 43°24' E 004°60'0 0.0
2015-Mar-31 13:31N 43°24' E 004°60'0 0.0
2015-Mar-31 12:31N 43°24' E 004°60'0 0.0
2015-Mar-31 11:31N 43°24' E 004°60'0 0.0
2015-Mar-31 10:31N 43°24' E 004°60'0 0.0
2015-Mar-31 09:31N 43°24' E 004°60'0 0.0
2015-Mar-31 08:31N 43°24' E 004°60'0 0.0
2015-Mar-31 07:31N 43°24' E 004°60'0 0.0
2015-Mar-31 06:31N 43°24' E 004°60'0 0.0
2015-Mar-31 05:31N 43°24' E 004°60'0 0.0
2015-Mar-31 04:28N 43°24' E 004°60'0 0.0
2015-Mar-31 03:31N 43°24' E 004°60'0 0.0
2015-Mar-31 02:31N 43°24' E 004°60'0 0.0
2015-Mar-31 01:31N 43°24' E 004°60'0 0.0
2015-Mar-31 00:28N 43°24' E 004°60'0 0.0
2015-Mar-30 23:28N 43°24' E 004°60'0 0.0
2015-Mar-30 22:31N 43°24' E 004°60'0 0.0
2015-Mar-30 21:31N 43°24' E 004°60'0 0.0
2015-Mar-30 20:31N 43°24' E 004°60'0 0.0
2015-Mar-30 19:28N 43°24' E 004°60'0 0.0
2015-Mar-30 18:31N 43°24' E 004°60'0 0.0
2015-Mar-30 17:28N 43°24' E 004°60'0 0.0
2015-Mar-30 16:28N 43°24' E 004°60'0 0.0
2015-Mar-30 15:31N 43°24' E 004°60'0 0.0
2015-Mar-30 14:28N 43°24' E 004°60'0 0.0
2015-Mar-30 13:31N 43°24' E 004°60'0 0.0
2015-Mar-30 12:28N 43°24' E 004°60'0 0.0
2015-Mar-30 11:31N 43°24' E 004°60'0 0.0
2015-Mar-30 10:28N 43°24' E 004°60'0 0.0
2015-Mar-30 09:31N 43°24' E 004°60'0 0.0
2015-Mar-30 08:31N 43°24' E 004°60'0 0.0
2015-Mar-30 07:28N 43°24' E 004°60'0 0.0
2015-Mar-30 06:33N 43°24' E 004°60'0 0.2
2015-Mar-30 05:34N 43°24' E 004°60'1 1.1
2015-Mar-30 04:30N 43°23' E 004°58'0 0.0
2015-Mar-30 03:30N 43°23' E 004°58'0 0.0
2015-Mar-30 02:30N 43°23' E 004°58'0 0.1
2015-Mar-30 01:30N 43°23' E 004°58'0 0.0
2015-Mar-30 00:30N 43°23' E 004°58'0 0.0
2015-Mar-29 23:33N 43°23' E 004°58'0 0.0
2015-Mar-29 22:33N 43°23' E 004°58'0 0.0
2015-Mar-29 21:30N 43°23' E 004°58'0 0.1
2015-Mar-29 20:30N 43°23' E 004°58'0 0.0
2015-Mar-29 19:33N 43°23' E 004°58'0 0.0
2015-Mar-29 18:24N 43°23' E 004°58'0 0.0
2015-Mar-29 17:30N 43°23' E 004°58'0 0.0
2015-Mar-29 16:24N 43°23' E 004°58'0 0.1
2015-Mar-29 15:33N 43°23' E 004°58'0 0.0
2015-Mar-29 14:30N 43°23' E 004°58'0 0.0
2015-Mar-29 13:33N 43°23' E 004°58'0 0.0
2015-Mar-29 12:33N 43°23' E 004°58'0 0.0
2015-Mar-29 11:33N 43°23' E 004°58'0 0.0
2015-Mar-29 10:33N 43°23' E 004°58'0 0.0
2015-Mar-29 09:33N 43°23' E 004°58'0 0.0
2015-Mar-29 08:30N 43°23' E 004°58'0 0.0
2015-Mar-29 07:33N 43°23' E 004°58'0 0.0
2015-Mar-29 06:30N 43°23' E 004°58'0 0.0
2015-Mar-29 05:33N 43°23' E 004°58'0 0.0
2015-Mar-29 04:33N 43°23' E 004°58'0 0.0
2015-Mar-29 03:33N 43°23' E 004°58'0 0.0
2015-Mar-29 02:33N 43°23' E 004°58'0 0.0
2015-Mar-29 01:24N 43°23' E 004°58'0 0.0
2015-Mar-29 00:30N 43°23' E 004°58'0 0.0
2015-Mar-28 23:33N 43°23' E 004°58'0 0.0
2015-Mar-28 22:30N 43°23' E 004°58'0 0.0
2015-Mar-28 21:33N 43°23' E 004°58'0 0.0
2015-Mar-28 20:30N 43°23' E 004°58'0 0.0
2015-Mar-28 19:30N 43°23' E 004°58'0 0.1
2015-Mar-28 18:24N 43°23' E 004°58'0 0.0
2015-Mar-28 17:33N 43°23' E 004°58'0 0.0
2015-Mar-28 16:30N 43°23' E 004°58'0 0.0
2015-Mar-28 15:27N 43°23' E 004°58'0 0.0
2015-Mar-28 14:30N 43°23' E 004°58'0 0.0
2015-Mar-28 13:33N 43°23' E 004°58'0 0.0
2015-Mar-28 12:18N 43°23' E 004°58'0 0.0
2015-Mar-28 11:33N 43°23' E 004°58'0 0.0
2015-Mar-28 10:33N 43°23' E 004°58'0 0.0
2015-Mar-28 09:33N 43°23' E 004°58'0 0.0
2015-Mar-28 08:33N 43°23' E 004°58'0 0.0
2015-Mar-28 07:33N 43°23' E 004°58'0 0.0
2015-Mar-28 06:30N 43°23' E 004°58'0 0.0
2015-Mar-28 05:33N 43°23' E 004°58'0 0.0
2015-Mar-28 04:33N 43°23' E 004°58'0 0.0
2015-Mar-28 03:33N 43°23' E 004°58'0 0.0
2015-Mar-28 02:33N 43°23' E 004°58'0 0.0
2015-Mar-28 01:33N 43°23' E 004°58'0 0.0
2015-Mar-28 00:33N 43°23' E 004°58'0 0.0
2015-Mar-27 23:30N 43°23' E 004°58'0 0.0
2015-Mar-27 22:30N 43°23' E 004°58'  

Dump ship's entire track history